createdAt,value
2023-08-17T00:00:52.244Z,3.88
2023-08-17T00:03:18.674Z,3.88
2023-08-17T00:05:45.134Z,3.48
2023-08-17T00:08:11.527Z,3.84
2023-08-17T00:10:37.959Z,3.65
2023-08-17T00:13:04.427Z,3.55
2023-08-17T00:15:33.761Z,3.46
2023-08-17T00:18:00.249Z,3.63
2023-08-17T00:20:26.715Z,3.63
2023-08-17T00:22:53.271Z,3.44
2023-08-17T00:25:19.699Z,3.55
2023-08-17T00:27:46.132Z,3.64
2023-08-17T00:30:12.596Z,3.49
2023-08-17T00:32:39.016Z,3.82
2023-08-17T00:35:05.398Z,3.52
2023-08-17T00:37:32.138Z,3.65
2023-08-17T00:39:58.574Z,3.15
2023-08-17T00:42:25.057Z,3.32
2023-08-17T00:44:51.544Z,3.41
2023-08-17T00:47:17.961Z,3.27
2023-08-17T00:49:44.373Z,3.35
2023-08-17T00:52:10.858Z,3.29
2023-08-17T00:54:37.280Z,3.55
2023-08-17T00:57:03.765Z,3.12
2023-08-17T00:59:36.422Z,3.16
2023-08-17T01:02:03.354Z,3.24
2023-08-17T01:04:29.787Z,3.46
2023-08-17T01:06:56.232Z,3.45
2023-08-17T01:09:22.677Z,3.47
2023-08-17T01:11:49.088Z,3.48
2023-08-17T01:14:15.636Z,3.40
2023-08-17T01:16:42.101Z,3.54
2023-08-17T01:19:08.579Z,3.32
2023-08-17T01:21:35.034Z,3.48
2023-08-17T01:24:01.469Z,3.42
2023-08-17T01:26:27.909Z,3.41
2023-08-17T01:28:54.403Z,3.36
2023-08-17T01:31:20.866Z,3.44
2023-08-17T01:33:47.290Z,3.36
2023-08-17T01:36:16.423Z,3.22
2023-08-17T01:38:42.873Z,3.26
2023-08-17T01:41:09.271Z,3.09
2023-08-17T01:43:35.697Z,3.47
2023-08-17T01:46:02.141Z,3.40
2023-08-17T01:48:28.788Z,3.35
2023-08-17T01:50:55.220Z,3.39
2023-08-17T01:53:22.689Z,3.48
2023-08-17T01:55:49.105Z,2.98
2023-08-17T01:58:16.492Z,3.19
2023-08-17T02:00:43.024Z,3.29
2023-08-17T02:03:09.494Z,3.12
2023-08-17T02:05:35.955Z,3.04
2023-08-17T02:08:02.387Z,3.24
2023-08-17T02:10:28.822Z,3.35
2023-08-17T02:13:02.142Z,3.14
2023-08-17T02:15:35.318Z,2.97
2023-08-17T02:18:01.800Z,3.30
2023-08-17T02:20:28.263Z,3.17
2023-08-17T02:22:54.707Z,3.28
2023-08-17T02:25:21.134Z,3.28
2023-08-17T02:27:47.597Z,3.05
2023-08-17T02:30:14.007Z,3.29
2023-08-17T02:32:40.485Z,3.41
2023-08-17T02:35:06.926Z,3.19
2023-08-17T02:37:33.327Z,3.33
2023-08-17T02:39:59.763Z,3.19
2023-08-17T02:42:26.229Z,3.21
2023-08-17T02:44:52.725Z,3.44
2023-08-17T02:47:19.154Z,3.47
2023-08-17T02:49:45.580Z,3.31
2023-08-17T02:52:12.035Z,3.32
2023-08-17T02:54:38.466Z,3.42
2023-08-17T02:57:04.878Z,3.31
2023-08-17T02:59:31.341Z,3.21
2023-08-17T03:01:57.903Z,3.24
2023-08-17T03:04:24.387Z,3.28
2023-08-17T03:06:50.847Z,3.57
2023-08-17T03:09:17.259Z,3.46
2023-08-17T03:11:43.676Z,3.48
2023-08-17T03:14:10.117Z,3.32
2023-08-17T03:16:36.605Z,3.13
2023-08-17T03:19:03.089Z,3.30
2023-08-17T03:21:29.522Z,3.49
2023-08-17T03:23:55.956Z,3.59
2023-08-17T03:26:22.395Z,3.82
2023-08-17T03:28:49.059Z,3.99
2023-08-17T03:31:15.578Z,3.97
2023-08-17T03:33:42.099Z,4.83
2023-08-17T03:36:08.523Z,4.21
2023-08-17T03:38:34.985Z,3.68
2023-08-17T03:41:01.389Z,4.94
2023-08-17T03:43:27.841Z,5.53
2023-08-17T03:45:54.268Z,4.48
2023-08-17T03:48:20.743Z,5.52
2023-08-17T03:50:47.140Z,4.96
2023-08-17T03:53:13.558Z,3.76
2023-08-17T03:55:40.096Z,4.01
2023-08-17T03:58:06.526Z,3.61
2023-08-17T04:00:33.011Z,4.58
2023-08-17T04:02:59.485Z,4.86
2023-08-17T04:05:25.940Z,4.31
2023-08-17T04:07:52.373Z,4.02
2023-08-17T04:10:18.831Z,3.74
2023-08-17T04:12:45.277Z,3.69
2023-08-17T04:15:11.691Z,3.80
2023-08-17T04:17:38.173Z,3.52
2023-08-17T04:20:04.639Z,3.70
2023-08-17T04:22:31.079Z,3.43
2023-08-17T04:24:57.509Z,3.44
2023-08-17T04:27:24.089Z,3.66
2023-08-17T04:29:50.808Z,3.51
2023-08-17T04:32:17.208Z,3.64
2023-08-17T04:34:43.644Z,3.60
2023-08-17T04:37:10.144Z,3.94
2023-08-17T04:39:36.567Z,3.66
2023-08-17T04:42:02.975Z,3.83
2023-08-17T04:44:29.391Z,4.25
2023-08-17T04:46:55.830Z,4.20
2023-08-17T04:49:22.241Z,4.56
2023-08-17T04:51:48.700Z,4.20
2023-08-17T04:54:15.176Z,4.12
2023-08-17T04:56:41.605Z,4.05
2023-08-17T04:59:08.048Z,3.83
2023-08-17T05:01:34.500Z,3.72
2023-08-17T05:04:01.065Z,3.90
2023-08-17T05:06:27.493Z,3.58
2023-08-17T05:08:53.970Z,3.81
2023-08-17T05:11:20.512Z,3.64
2023-08-17T05:13:46.983Z,3.44
2023-08-17T05:16:13.446Z,3.36
2023-08-17T05:18:39.889Z,3.70
2023-08-17T05:21:06.301Z,4.08
2023-08-17T05:23:32.709Z,3.00
2023-08-17T05:25:59.182Z,3.44
2023-08-17T05:28:25.597Z,2.94
2023-08-17T05:30:52.128Z,3.44
2023-08-17T05:33:18.652Z,3.35
2023-08-17T05:35:45.151Z,3.43
2023-08-17T05:38:11.644Z,3.47
2023-08-17T05:40:38.065Z,3.30
2023-08-17T05:43:04.537Z,3.34
2023-08-17T05:45:30.988Z,3.09
2023-08-17T05:47:57.508Z,3.00
2023-08-17T05:50:24.025Z,2.95
2023-08-17T05:52:50.443Z,2.90
2023-08-17T05:55:16.854Z,3.34
2023-08-17T05:57:43.314Z,3.08
2023-08-17T06:00:09.745Z,3.00
2023-08-17T06:02:36.148Z,3.22
2023-08-17T06:05:02.652Z,3.08
2023-08-17T06:07:29.208Z,2.85
2023-08-17T06:09:55.840Z,3.23
2023-08-17T06:12:22.302Z,3.12
2023-08-17T06:14:48.720Z,3.50
2023-08-17T06:17:15.218Z,3.28
2023-08-17T06:19:44.108Z,3.31
2023-08-17T06:22:10.508Z,2.89
2023-08-17T06:24:37.015Z,2.88
2023-08-17T06:27:03.470Z,2.71
2023-08-17T06:29:30.002Z,3.12
2023-08-17T06:31:56.417Z,2.83
2023-08-17T06:34:22.869Z,2.94
2023-08-17T06:36:49.290Z,3.02
2023-08-17T06:39:15.712Z,3.01
2023-08-17T06:41:42.245Z,3.15
2023-08-17T06:44:08.666Z,3.69
2023-08-17T06:46:35.264Z,4.73
2023-08-17T06:49:01.769Z,4.17
2023-08-17T06:51:28.276Z,3.95
2023-08-17T06:53:54.992Z,3.58
2023-08-17T06:56:21.525Z,3.44
2023-08-17T06:58:48.035Z,3.30
2023-08-17T07:01:14.454Z,3.39
2023-08-17T07:03:40.898Z,3.21
2023-08-17T07:06:07.458Z,3.22
2023-08-17T07:08:33.912Z,3.00
2023-08-17T07:11:00.353Z,3.23
2023-08-17T07:13:26.819Z,3.36
2023-08-17T07:15:53.483Z,3.42
2023-08-17T07:18:20.746Z,3.33
2023-08-17T07:20:47.164Z,3.21
2023-08-17T07:23:13.557Z,3.30
2023-08-17T07:25:39.959Z,3.31
2023-08-17T07:28:06.359Z,3.43
2023-08-17T07:30:32.904Z,2.95
2023-08-17T07:32:59.453Z,3.05
2023-08-17T07:35:26.036Z,3.18
2023-08-17T07:38:03.529Z,2.99
2023-08-17T07:40:34.070Z,3.55
2023-08-17T07:43:03.255Z,3.52
2023-08-17T07:45:29.648Z,3.42
2023-08-17T07:47:58.332Z,3.57
2023-08-17T07:50:24.781Z,3.41
2023-08-17T07:52:51.179Z,3.42
2023-08-17T07:55:17.606Z,4.45
2023-08-17T07:57:44.024Z,3.88
2023-08-17T08:00:10.440Z,3.41
2023-08-17T08:02:36.933Z,3.50
2023-08-17T08:05:03.520Z,3.26
2023-08-17T08:07:30.123Z,3.49
2023-08-17T08:09:56.670Z,3.53
2023-08-17T08:12:23.086Z,3.44
2023-08-17T08:14:49.558Z,3.30
2023-08-17T08:17:16.067Z,3.54
2023-08-17T08:19:42.475Z,3.44
2023-08-17T08:22:08.905Z,3.72
2023-08-17T08:24:37.893Z,3.23
2023-08-17T08:27:05.158Z,3.32
2023-08-17T08:29:31.669Z,3.37
2023-08-17T08:31:58.076Z,3.18
2023-08-17T08:34:24.476Z,3.57
2023-08-17T08:36:50.895Z,3.60
2023-08-17T08:39:17.333Z,3.41
2023-08-17T08:41:43.848Z,3.47
2023-08-17T08:44:10.311Z,3.48
2023-08-17T08:46:37.964Z,5.19
2023-08-17T08:49:04.526Z,5.39
2023-08-17T08:51:30.933Z,3.93
2023-08-17T08:53:57.348Z,3.63
2023-08-17T08:56:23.810Z,3.42
2023-08-17T08:58:54.629Z,3.44
2023-08-17T09:01:21.465Z,3.78
2023-08-17T09:03:47.914Z,3.46
2023-08-17T09:06:14.382Z,3.71
2023-08-17T09:08:40.809Z,3.78
2023-08-17T09:11:07.271Z,3.57
2023-08-17T09:13:33.693Z,3.29
2023-08-17T09:16:00.142Z,3.52
2023-08-17T09:18:26.599Z,3.41
2023-08-17T09:20:56.018Z,3.21
2023-08-17T09:23:22.451Z,3.55
2023-08-17T09:25:48.894Z,4.18
2023-08-17T09:28:15.347Z,4.60
2023-08-17T09:30:41.856Z,3.57
2023-08-17T09:33:08.454Z,3.90
2023-08-17T09:35:34.890Z,3.50
2023-08-17T09:38:01.318Z,3.67
2023-08-17T09:40:27.759Z,3.55
2023-08-17T09:42:54.166Z,4.01
2023-08-17T09:45:20.660Z,3.91
2023-08-17T09:47:47.123Z,3.97
2023-08-17T09:50:13.513Z,3.74
2023-08-17T09:52:39.935Z,3.97
2023-08-17T09:55:08.630Z,3.90
2023-08-17T09:57:35.363Z,3.95
2023-08-17T10:00:01.845Z,3.73
2023-08-17T10:02:28.491Z,3.92
2023-08-17T10:04:55.308Z,3.99
2023-08-17T10:07:21.858Z,3.91
2023-08-17T10:09:50.119Z,4.17
2023-08-17T10:12:16.870Z,4.49
2023-08-17T10:14:43.309Z,4.12
2023-08-17T10:17:09.759Z,4.21
2023-08-17T10:19:36.176Z,4.41
2023-08-17T10:22:02.676Z,4.28
2023-08-17T10:24:29.191Z,4.14
2023-08-17T10:26:55.607Z,3.78
2023-08-17T10:29:22.010Z,3.85
2023-08-17T10:31:48.473Z,3.79
2023-08-17T10:34:14.949Z,3.90
2023-08-17T10:36:41.384Z,3.64
2023-08-17T10:39:12.594Z,3.69
2023-08-17T10:41:39.099Z,3.94
2023-08-17T10:44:05.536Z,3.77
2023-08-17T10:46:32.116Z,4.62
2023-08-17T10:48:58.870Z,4.79
2023-08-17T10:51:25.308Z,3.70
2023-08-17T10:53:51.744Z,3.82
2023-08-17T10:56:18.185Z,3.68
2023-08-17T10:58:44.621Z,3.85
2023-08-17T11:01:11.043Z,3.70
2023-08-17T11:03:37.531Z,3.83
2023-08-17T11:06:03.984Z,3.72
2023-08-17T11:08:30.432Z,3.77
2023-08-17T11:10:56.886Z,3.80
2023-08-17T11:13:24.800Z,3.81
2023-08-17T11:15:51.228Z,3.92
2023-08-17T11:18:17.754Z,3.68
2023-08-17T11:20:44.176Z,3.90
2023-08-17T11:23:10.888Z,3.91
2023-08-17T11:25:37.389Z,4.28
2023-08-17T11:28:03.802Z,4.14
2023-08-17T11:30:30.327Z,3.82
2023-08-17T11:32:56.782Z,4.08
2023-08-17T11:35:23.243Z,4.06
2023-08-17T11:37:49.660Z,4.21
2023-08-17T11:40:16.062Z,3.95
2023-08-17T11:42:42.466Z,3.96
2023-08-17T11:45:08.894Z,3.71
2023-08-17T11:47:35.379Z,3.43
2023-08-17T11:50:14.638Z,3.78
2023-08-17T11:52:46.805Z,3.78
2023-08-17T11:55:13.300Z,3.82
2023-08-17T11:57:39.752Z,3.96
2023-08-17T12:00:06.158Z,3.65
2023-08-17T12:02:32.589Z,3.60
2023-08-17T12:04:59.047Z,4.00
2023-08-17T12:07:25.495Z,4.09
2023-08-17T12:09:51.982Z,4.27
2023-08-17T12:12:18.411Z,4.07
2023-08-17T12:14:46.142Z,4.26
2023-08-17T12:17:12.928Z,4.08
2023-08-17T12:19:39.356Z,3.87
2023-08-17T12:22:05.793Z,3.96
2023-08-17T12:24:32.203Z,3.80
2023-08-17T12:26:58.740Z,4.12
2023-08-17T12:29:25.205Z,4.15
2023-08-17T12:31:51.729Z,4.16
2023-08-17T12:34:18.166Z,4.50
2023-08-17T12:36:44.688Z,4.20
2023-08-17T12:39:11.126Z,4.57
2023-08-17T12:41:37.560Z,4.30
2023-08-17T12:44:04.008Z,4.22
2023-08-17T12:46:32.559Z,4.21
2023-08-17T12:48:59.230Z,4.58
2023-08-17T12:51:25.643Z,5.83
2023-08-17T12:53:52.191Z,4.43
2023-08-17T12:56:18.588Z,5.11
2023-08-17T12:58:45.013Z,4.74
2023-08-17T13:01:11.458Z,4.61
2023-08-17T13:03:37.944Z,4.84
2023-08-17T13:06:04.513Z,4.56
2023-08-17T13:08:31.085Z,4.77
2023-08-17T13:10:57.536Z,5.21
2023-08-17T13:13:24.018Z,4.92
2023-08-17T13:15:53.527Z,4.88
2023-08-17T13:18:19.980Z,4.69
2023-08-17T13:20:46.460Z,4.96
2023-08-17T13:23:12.872Z,4.82
2023-08-17T13:25:41.475Z,4.71
2023-08-17T13:28:07.903Z,4.95
2023-08-17T13:30:34.325Z,4.71
2023-08-17T13:33:00.813Z,4.74
2023-08-17T13:35:27.289Z,4.86
2023-08-17T13:37:53.686Z,5.08
2023-08-17T13:40:20.081Z,4.89
2023-08-17T13:42:46.520Z,5.42
2023-08-17T13:45:13.032Z,5.57
2023-08-17T13:47:39.515Z,4.59
2023-08-17T13:50:06.075Z,4.80
2023-08-17T13:52:32.559Z,4.86
2023-08-17T13:55:00.972Z,4.59
2023-08-17T13:57:27.440Z,4.65
2023-08-17T13:59:53.883Z,4.74
2023-08-17T14:02:22.495Z,4.94
2023-08-17T14:04:48.921Z,7.23
2023-08-17T14:07:15.332Z,4.95
2023-08-17T14:09:48.716Z,4.69
2023-08-17T14:12:20.904Z,4.86
2023-08-17T14:14:47.352Z,4.60
2023-08-17T14:17:13.822Z,4.59
2023-08-17T14:19:40.274Z,4.35
2023-08-17T14:22:06.668Z,4.46
2023-08-17T14:24:33.321Z,4.72
2023-08-17T14:26:59.815Z,4.38
2023-08-17T14:29:28.057Z,4.29
2023-08-17T14:31:56.204Z,4.02
2023-08-17T14:34:22.968Z,4.44
2023-08-17T14:36:49.367Z,4.58
2023-08-17T14:39:18.216Z,4.39
2023-08-17T14:41:46.654Z,4.22
2023-08-17T14:44:13.303Z,4.24
2023-08-17T14:46:39.707Z,4.15
2023-08-17T14:49:06.147Z,4.33
2023-08-17T14:51:32.536Z,4.24
2023-08-17T14:53:58.981Z,4.93
2023-08-17T14:56:25.404Z,4.47
2023-08-17T14:58:51.850Z,4.50
2023-08-17T15:01:19.003Z,4.11
2023-08-17T15:03:45.767Z,4.19
2023-08-17T15:06:23.863Z,4.04
2023-08-17T15:08:58.556Z,4.17
2023-08-17T15:11:25.020Z,3.94
2023-08-17T15:13:51.504Z,3.63
2023-08-17T15:16:18.062Z,3.99
2023-08-17T15:18:44.552Z,3.96
2023-08-17T15:21:11.001Z,3.92
2023-08-17T15:23:37.472Z,3.98
2023-08-17T15:26:04.023Z,4.77
2023-08-17T15:28:32.829Z,5.14
2023-08-17T15:30:59.258Z,4.52
2023-08-17T15:33:25.660Z,4.18
2023-08-17T15:35:52.132Z,4.27
2023-08-17T15:38:18.645Z,5.56
2023-08-17T15:40:45.062Z,9.04
2023-08-17T15:43:11.544Z,5.72
2023-08-17T15:45:38.046Z,13.71
2023-08-17T15:48:04.586Z,9.28
2023-08-17T15:50:31.107Z,5.54
2023-08-17T15:52:57.513Z,4.46
2023-08-17T15:55:23.968Z,5.20
2023-08-17T15:57:51.042Z,11.16
2023-08-17T16:00:18.079Z,9.42
2023-08-17T16:02:44.561Z,5.21
2023-08-17T16:05:11.065Z,4.30
2023-08-17T16:07:37.571Z,5.91
2023-08-17T16:10:04.061Z,5.60
2023-08-17T16:12:30.552Z,5.32
2023-08-17T16:14:56.970Z,5.09
2023-08-17T16:17:23.403Z,5.29
2023-08-17T16:19:49.857Z,5.14
2023-08-17T16:22:17.635Z,4.50
2023-08-17T16:24:44.139Z,4.15
2023-08-17T16:27:10.559Z,4.56
2023-08-17T16:29:38.977Z,4.48
2023-08-17T16:32:09.103Z,3.84
2023-08-17T16:34:35.733Z,3.71
2023-08-17T16:37:02.285Z,4.00
2023-08-17T16:39:28.742Z,3.58
2023-08-17T16:41:55.197Z,3.43
2023-08-17T16:44:21.654Z,3.83
2023-08-17T16:46:48.191Z,3.73
2023-08-17T16:49:14.790Z,3.31
2023-08-17T16:51:41.261Z,3.37
2023-08-17T16:54:07.673Z,3.04
2023-08-17T16:56:34.153Z,3.25
2023-08-17T16:59:02.169Z,3.60
2023-08-17T17:01:29.093Z,3.07
2023-08-17T17:03:58.002Z,2.89
2023-08-17T17:06:24.478Z,2.82
2023-08-17T17:08:50.926Z,2.90
2023-08-17T17:11:17.415Z,2.82
2023-08-17T17:13:43.876Z,3.10
2023-08-17T17:16:10.385Z,3.27
2023-08-17T17:18:36.909Z,2.91
2023-08-17T17:21:03.360Z,3.30
2023-08-17T17:23:29.837Z,3.10
2023-08-17T17:25:56.290Z,3.42
2023-08-17T17:28:22.798Z,2.79
2023-08-17T17:30:49.225Z,3.09
2023-08-17T17:33:15.729Z,3.11
2023-08-17T17:35:42.165Z,3.04
2023-08-17T17:38:08.612Z,2.70
2023-08-17T17:40:35.029Z,3.10
2023-08-17T17:43:01.468Z,2.88
2023-08-17T17:45:27.864Z,2.61
2023-08-17T17:47:54.457Z,2.70
2023-08-17T17:50:21.001Z,2.70
2023-08-17T17:52:48.834Z,2.78
2023-08-17T17:55:15.362Z,2.52
2023-08-17T17:57:42.890Z,2.93
2023-08-17T18:00:09.377Z,3.08
2023-08-17T18:02:35.945Z,3.89
2023-08-17T18:05:02.444Z,3.51
2023-08-17T18:07:29.203Z,3.81
2023-08-17T18:09:55.845Z,4.56
2023-08-17T18:12:22.316Z,4.06
2023-08-17T18:14:48.781Z,3.67
2023-08-17T18:17:15.220Z,4.04
2023-08-17T18:19:41.644Z,4.39
2023-08-17T18:22:08.195Z,4.27
2023-08-17T18:24:34.792Z,4.04
2023-08-17T18:27:04.299Z,4.38
2023-08-17T18:29:30.772Z,4.49
2023-08-17T18:31:57.285Z,3.88
2023-08-17T18:34:23.776Z,4.79
2023-08-17T18:36:50.251Z,4.37
2023-08-17T18:39:16.673Z,3.40
2023-08-17T18:41:43.180Z,3.26
2023-08-17T18:44:09.635Z,3.31
2023-08-17T18:46:36.057Z,3.45
2023-08-17T18:49:02.507Z,3.43
2023-08-17T18:51:29.030Z,3.73
2023-08-17T18:53:55.419Z,3.30
2023-08-17T18:56:21.859Z,4.19
2023-08-17T18:58:48.344Z,3.74
2023-08-17T19:01:14.912Z,3.81
2023-08-17T19:03:41.491Z,3.63
2023-08-17T19:06:07.933Z,3.32
2023-08-17T19:08:34.349Z,3.12
2023-08-17T19:11:00.807Z,3.38
2023-08-17T19:13:27.259Z,3.23
2023-08-17T19:15:53.785Z,3.11
2023-08-17T19:18:20.283Z,3.40
2023-08-17T19:20:46.768Z,3.22
2023-08-17T19:23:13.181Z,3.12
2023-08-17T19:25:39.704Z,3.20
2023-08-17T19:28:06.196Z,3.06
2023-08-17T19:30:32.690Z,2.76
2023-08-17T19:32:59.166Z,3.06
2023-08-17T19:35:25.653Z,3.52
2023-08-17T19:37:52.087Z,3.24
2023-08-17T19:40:18.517Z,3.39
2023-08-17T19:42:45.009Z,3.25
2023-08-17T19:45:11.493Z,3.44
2023-08-17T19:47:37.946Z,3.81
2023-08-17T19:50:04.462Z,4.40
2023-08-17T19:52:30.971Z,3.82
2023-08-17T19:54:57.434Z,3.29
2023-08-17T19:57:23.913Z,3.87
2023-08-17T19:59:53.500Z,4.05
2023-08-17T20:02:19.970Z,4.00
2023-08-17T20:04:46.595Z,4.70
2023-08-17T20:07:13.042Z,4.15
2023-08-17T20:09:39.489Z,4.20
2023-08-17T20:12:05.934Z,3.34
2023-08-17T20:14:32.371Z,2.92
2023-08-17T20:16:58.772Z,3.97
2023-08-17T20:19:25.209Z,3.59
2023-08-17T20:21:51.695Z,3.53
2023-08-17T20:24:18.217Z,3.14
2023-08-17T20:26:44.770Z,3.09
2023-08-17T20:29:11.411Z,3.15
2023-08-17T20:31:37.997Z,3.46
2023-08-17T20:34:04.565Z,3.20
2023-08-17T20:36:31.038Z,3.07
2023-08-17T20:38:57.538Z,3.28
2023-08-17T20:41:24.097Z,3.44
2023-08-17T20:43:50.597Z,3.37
2023-08-17T20:46:17.190Z,3.07
2023-08-17T20:48:43.706Z,3.35
2023-08-17T20:51:10.406Z,3.05
2023-08-17T20:53:36.996Z,2.86
2023-08-17T20:56:03.595Z,2.61
2023-08-17T20:58:30.074Z,2.88
2023-08-17T21:00:56.719Z,2.99
2023-08-17T21:03:23.301Z,3.90
2023-08-17T21:05:50.355Z,3.46
2023-08-17T21:08:19.244Z,3.89
2023-08-17T21:10:46.292Z,3.59
2023-08-17T21:13:13.466Z,3.05
2023-08-17T21:15:40.097Z,2.96
2023-08-17T21:18:06.650Z,2.66
2023-08-17T21:20:33.189Z,3.16
2023-08-17T21:22:59.708Z,3.62
2023-08-17T21:25:26.201Z,4.35
2023-08-17T21:27:52.696Z,3.59
2023-08-17T21:30:21.746Z,3.31
2023-08-17T21:32:48.294Z,2.75
2023-08-17T21:35:14.863Z,2.80
2023-08-17T21:37:41.391Z,3.01
2023-08-17T21:40:07.820Z,3.07
2023-08-17T21:42:34.353Z,2.86
2023-08-17T21:45:00.759Z,2.78
2023-08-17T21:47:27.413Z,3.08
2023-08-17T21:49:54.092Z,3.44
2023-08-17T21:52:20.602Z,2.95
2023-08-17T21:54:47.093Z,2.99
2023-08-17T21:57:13.510Z,3.07
2023-08-17T21:59:39.908Z,3.14
2023-08-17T22:02:06.976Z,2.74
2023-08-17T22:04:34.621Z,2.79
2023-08-17T22:07:01.028Z,2.68
2023-08-17T22:09:27.461Z,3.15
2023-08-17T22:11:53.903Z,3.05
2023-08-17T22:14:20.305Z,3.28
2023-08-17T22:16:46.770Z,3.02
2023-08-17T22:19:13.602Z,3.44
2023-08-17T22:21:40.070Z,3.20
2023-08-17T22:24:06.477Z,2.99
2023-08-17T22:26:32.911Z,2.75
2023-08-17T22:28:59.488Z,3.20
2023-08-17T22:31:26.060Z,3.21
2023-08-17T22:33:52.584Z,3.25
2023-08-17T22:36:19.033Z,3.77
2023-08-17T22:38:45.414Z,3.06
2023-08-17T22:41:11.804Z,2.90
2023-08-17T22:43:38.225Z,3.05
2023-08-17T22:46:04.640Z,2.87
2023-08-17T22:48:31.082Z,2.73
2023-08-17T22:50:57.509Z,2.83
2023-08-17T22:53:23.917Z,2.74
2023-08-17T22:55:50.344Z,2.72
2023-08-17T22:58:16.927Z,2.92
2023-08-17T23:00:43.362Z,3.08
2023-08-17T23:03:09.802Z,3.09
2023-08-17T23:05:36.244Z,2.93
2023-08-17T23:08:02.687Z,2.80
2023-08-17T23:10:29.248Z,2.70
2023-08-17T23:12:55.677Z,2.83
2023-08-17T23:15:22.077Z,2.90
2023-08-17T23:17:48.553Z,2.93
2023-08-17T23:20:15.017Z,4.04
2023-08-17T23:22:41.452Z,3.19
2023-08-17T23:25:07.933Z,2.80
2023-08-17T23:27:34.428Z,2.93
2023-08-17T23:30:00.913Z,2.68
2023-08-17T23:32:28.666Z,2.80
2023-08-17T23:34:55.458Z,2.64
2023-08-17T23:37:21.883Z,2.96
2023-08-17T23:39:48.330Z,3.00
2023-08-17T23:42:14.795Z,3.11
2023-08-17T23:44:41.228Z,3.15
2023-08-17T23:47:07.648Z,2.83
2023-08-17T23:49:34.077Z,2.71
2023-08-17T23:52:00.465Z,3.01
2023-08-17T23:54:26.880Z,2.70
2023-08-17T23:56:53.379Z,2.97
2023-08-17T23:59:19.890Z,2.93
